Time;durP1;ratioP1;P1;durP2;ratioP2;P2;SDS_P1;SDS_P2;PMS_P1;PMS_P2;Temp;Humidity;BMP_temperature;BMP_pressure;BME280_temperature;BME280_humidity;BME280_pressure;Samples;Min_cycle;Max_cycle;Signal;HPM_P1;HPM_P2
2022/11/10 00:00:07;;;;;;;12.23;6.22;;;;;;;;;;5068911;28;20401;-74
2022/11/10 00:02:33;;;;;;;9.75;5.13;;;;;;;;;;5089512;28;20035;-74
2022/11/10 00:04:59;;;;;;;12.00;5.60;;;;;;;;;;5085489;28;20039;-74
2022/11/10 00:07:25;;;;;;;19.67;8.57;;;;;;;;;;5078689;28;20036;-74
2022/11/10 00:09:51;;;;;;;17.85;11.82;;;;;;;;;;5087456;28;20119;-74
2022/11/10 00:12:18;;;;;;;16.58;10.25;;;;;;;;;;5087450;28;20040;-74
2022/11/10 00:17:28;;;;;;;22.48;14.43;;;;;;;;;;5077362;28;20039;-74
2022/11/10 00:19:55;;;;;;;22.63;14.85;;;;;;;;;;5080123;28;20032;-74
2022/11/10 00:22:21;;;;;;;22.67;13.32;;;;;;;;;;5080368;28;20400;-74
2022/11/10 00:24:47;;;;;;;16.30;10.00;;;;;;;;;;5076937;28;20029;-74
2022/11/10 00:27:13;;;;;;;17.30;10.52;;;;;;;;;;5082166;28;20624;-74
2022/11/10 00:29:40;;;;;;;17.85;10.38;;;;;;;;;;5088745;28;20032;-74
2022/11/10 00:32:06;;;;;;;12.35;7.80;;;;;;;;;;5079323;28;20032;-74
2022/11/10 00:34:32;;;;;;;14.32;8.40;;;;;;;;;;5085643;28;20085;-74
2022/11/10 00:36:58;;;;;;;16.38;8.95;;;;;;;;;;5087330;28;20039;-75
2022/11/10 00:39:24;;;;;;;15.48;9.85;;;;;;;;;;5084777;28;20024;-74
2022/11/10 00:41:50;;;;;;;23.45;14.18;;;;;;;;;;5081462;28;20032;-74
2022/11/10 00:44:16;;;;;;;14.55;9.45;;;;;;;;;;5076641;28;20074;-74
2022/11/10 00:46:43;;;;;;;13.88;9.77;;;;;;;;;;5079925;28;20401;-74
2022/11/10 00:49:09;;;;;;;20.00;12.55;;;;;;;;;;5090486;28;20105;-74
2022/11/10 00:51:35;;;;;;;17.70;10.65;;;;;;;;;;5087344;28;20107;-74
2022/11/10 00:54:01;;;;;;;22.25;13.40;;;;;;;;;;5082057;28;20042;-74
2022/11/10 00:56:27;;;;;;;17.17;12.32;;;;;;;;;;5078671;28;20064;-74
2022/11/10 00:58:53;;;;;;;22.60;17.70;;;;;;;;;;5078455;28;20077;-74
2022/11/10 01:01:19;;;;;;;23.77;16.25;;;;;;;;;;5081470;28;20028;-74
2022/11/10 01:03:45;;;;;;;22.90;17.48;;;;;;;;;;5083334;28;20525;-75
2022/11/10 01:06:13;;;;;;;27.48;16.90;;;;;;;;;;5084707;28;20060;-74
2022/11/10 01:08:39;;;;;;;35.55;26.35;;;;;;;;;;5080530;28;20488;-74
2022/11/10 01:11:07;;;;;;;33.00;25.05;;;;;;;;;;5082902;28;20048;-75
2022/11/10 01:13:33;;;;;;;27.98;22.17;;;;;;;;;;5080840;28;20204;-75
2022/11/10 01:16:25;;;;;;;32.30;25.65;;;;;;;;;;5079307;28;20036;-75
2022/11/10 01:18:52;;;;;;;32.45;25.23;;;;;;;;;;5073348;28;20468;-74
2022/11/10 01:21:18;;;;;;;25.73;22.45;;;;;;;;;;5081701;28;20055;-74
2022/11/10 01:23:44;;;;;;;30.65;21.92;;;;;;;;;;5084630;28;20502;-74
2022/11/10 01:26:11;;;;;;;34.00;27.55;;;;;;;;;;5082451;28;20089;-75
2022/11/10 01:28:37;;;;;;;33.30;26.00;;;;;;;;;;5074576;28;20032;-74
2022/11/10 01:31:06;;;;;;;33.78;25.13;;;;;;;;;;5079347;28;20036;-74
2022/11/10 01:33:33;;;;;;;25.70;21.45;;;;;;;;;;5082744;28;20035;-74
2022/11/10 01:35:59;;;;;;;27.23;21.35;;;;;;;;;;5085022;28;20043;-74
2022/11/10 01:38:32;;;;;;;49.20;34.58;;;;;;;;;;5079569;28;20032;-75
2022/11/10 01:40:58;;;;;;;46.75;32.58;;;;;;;;;;5082207;28;20428;-75
2022/11/10 01:43:25;;;;;;;40.42;30.35;;;;;;;;;;5078669;28;20063;-75
2022/11/10 01:45:52;;;;;;;15.18;9.88;;;;;;;;;;5084149;28;20032;-74
2022/11/10 01:48:21;;;;;;;9.80;7.10;;;;;;;;;;5074427;28;20039;-74
2022/11/10 01:50:47;;;;;;;17.13;12.63;;;;;;;;;;5079513;28;20028;-74
2022/11/10 01:53:16;;;;;;;19.73;14.65;;;;;;;;;;5072433;28;20035;-74
2022/11/10 01:55:43;;;;;;;19.08;15.90;;;;;;;;;;5081822;28;20027;-74
2022/11/10 01:58:11;;;;;;;23.45;17.42;;;;;;;;;;5078346;28;20377;-74
2022/11/10 02:00:37;;;;;;;21.20;14.40;;;;;;;;;;5077195;28;20035;-74
2022/11/10 02:03:09;;;;;;;14.70;11.50;;;;;;;;;;5068820;28;20032;-74
2022/11/10 02:05:35;;;;;;;18.80;12.47;;;;;;;;;;5086727;28;20056;-74
2022/11/10 02:08:02;;;;;;;16.83;12.90;;;;;;;;;;5078836;28;20369;-75
2022/11/10 02:10:28;;;;;;;16.02;10.65;;;;;;;;;;5076110;28;20111;-74
2022/11/10 02:12:54;;;;;;;15.57;10.05;;;;;;;;;;5071153;28;20033;-74
2022/11/10 02:15:20;;;;;;;15.98;8.23;;;;;;;;;;5083964;28;20077;-74
2022/11/10 02:17:46;;;;;;;13.77;9.15;;;;;;;;;;5086491;28;20055;-74
2022/11/10 02:20:13;;;;;;;13.23;7.85;;;;;;;;;;5084880;28;20032;-75
2022/11/10 02:22:40;;;;;;;8.30;4.60;;;;;;;;;;5083330;28;20039;-74
2022/11/10 02:25:06;;;;;;;9.00;5.40;;;;;;;;;;5082766;28;20115;-74
2022/11/10 02:27:32;;;;;;;11.90;4.25;;;;;;;;;;5087306;28;20041;-74
2022/11/10 02:29:59;;;;;;;6.57;3.67;;;;;;;;;;5091064;28;20131;-74
2022/11/10 02:32:25;;;;;;;8.35;3.75;;;;;;;;;;5083161;28;20036;-74
2022/11/10 02:34:51;;;;;;;19.20;7.03;;;;;;;;;;5086898;28;20512;-74
2022/11/10 02:37:17;;;;;;;17.60;5.28;;;;;;;;;;5078265;28;20115;-74
2022/11/10 02:39:43;;;;;;;10.55;5.18;;;;;;;;;;5081732;28;20589;-74
2022/11/10 02:42:11;;;;;;;14.05;5.20;;;;;;;;;;5056798;28;20044;-75
2022/11/10 02:44:38;;;;;;;14.23;5.68;;;;;;;;;;5072032;28;20040;-74
2022/11/10 02:47:04;;;;;;;17.67;5.45;;;;;;;;;;5079776;28;20104;-75
2022/11/10 02:49:30;;;;;;;14.25;7.90;;;;;;;;;;5086750;28;20036;-74
2022/11/10 02:51:56;;;;;;;14.80;6.50;;;;;;;;;;5087890;28;20061;-74
2022/11/10 02:54:22;;;;;;;10.95;5.10;;;;;;;;;;5084803;28;20038;-74
2022/11/10 02:56:48;;;;;;;10.20;5.43;;;;;;;;;;5084317;28;20032;-74
2022/11/10 02:59:14;;;;;;;12.18;5.30;;;;;;;;;;5076644;28;20047;-74
2022/11/10 03:01:40;;;;;;;10.70;4.75;;;;;;;;;;5085404;28;20358;-74
2022/11/10 03:04:06;;;;;;;12.50;6.22;;;;;;;;;;5083522;28;20111;-74
2022/11/10 03:06:32;;;;;;;11.88;6.68;;;;;;;;;;5082107;28;20056;-74
2022/11/10 03:08:58;;;;;;;10.27;5.70;;;;;;;;;;5078797;28;20736;-74
2022/11/10 03:11:24;;;;;;;20.83;12.23;;;;;;;;;;5082941;28;20093;-74
2022/11/10 03:13:50;;;;;;;15.30;9.57;;;;;;;;;;5080568;28;20525;-74
2022/11/10 03:16:17;;;;;;;26.60;15.25;;;;;;;;;;5088748;28;20107;-74
2022/11/10 03:18:43;;;;;;;14.88;10.93;;;;;;;;;;5087707;28;20074;-74
2022/11/10 03:21:09;;;;;;;19.75;10.50;;;;;;;;;;5075933;28;20024;-74
2022/11/10 03:23:35;;;;;;;16.63;10.38;;;;;;;;;;5080173;28;20020;-74
2022/11/10 03:26:05;;;;;;;15.93;10.93;;;;;;;;;;5081929;28;20115;-74
2022/11/10 03:28:31;;;;;;;17.75;11.15;;;;;;;;;;5079881;28;20040;-74
2022/11/10 03:30:57;;;;;;;13.20;9.85;;;;;;;;;;5084782;28;20036;-75
2022/11/10 03:33:23;;;;;;;11.70;8.77;;;;;;;;;;5087422;28;20044;-74
2022/11/10 03:35:49;;;;;;;15.55;10.90;;;;;;;;;;5079395;28;20135;-75
2022/11/10 03:38:15;;;;;;;14.93;12.13;;;;;;;;;;5079815;28;20087;-74
2022/11/10 03:40:41;;;;;;;22.75;18.02;;;;;;;;;;5079556;28;20032;-74
2022/11/10 03:43:07;;;;;;;27.52;21.55;;;;;;;;;;5078108;28;20099;-74
2022/11/10 03:45:32;;;;;;;29.27;21.75;;;;;;;;;;5079967;28;20024;-74
2022/11/10 03:47:58;;;;;;;25.42;19.52;;;;;;;;;;5074201;28;20462;-74
2022/11/10 03:50:24;;;;;;;24.05;17.38;;;;;;;;;;5081481;28;20103;-74
2022/11/10 03:52:50;;;;;;;23.23;18.85;;;;;;;;;;5077791;28;20501;-74
2022/11/10 03:55:17;;;;;;;21.42;17.42;;;;;;;;;;5077614;28;20035;-74
2022/11/10 03:57:43;;;;;;;26.30;20.95;;;;;;;;;;5078056;28;20034;-75
2022/11/10 04:00:11;;;;;;;26.88;21.85;;;;;;;;;;5083570;28;20028;-75
2022/11/10 04:02:37;;;;;;;20.13;16.98;;;;;;;;;;5081843;28;20090;-74
2022/11/10 04:10:35;;;;;;;20.85;16.75;;;;;;;;;;5081954;28;20173;-74
2022/11/10 04:15:46;;;;;;;20.67;14.75;;;;;;;;;;5090126;28;20077;-74
2022/11/10 04:18:25;;;;;;;25.92;14.73;;;;;;;;;;5085416;28;20415;-75
2022/11/10 04:20:51;;;;;;;17.70;11.75;;;;;;;;;;5073104;28;20063;-74
2022/11/10 04:23:26;;;;;;;21.30;12.45;;;;;;;;;;5077955;28;20136;-74
2022/11/10 04:28:52;;;;;;;18.40;11.52;;;;;;;;;;5083625;28;20043;-74
2022/11/10 04:31:19;;;;;;;20.42;12.98;;;;;;;;;;5083071;28;20036;-74
2022/11/10 04:33:45;;;;;;;16.02;10.85;;;;;;;;;;5083174;28;20373;-74
2022/11/10 04:36:12;;;;;;;16.35;10.88;;;;;;;;;;5087329;28;20040;-75
2022/11/10 04:38:39;;;;;;;16.30;9.45;;;;;;;;;;5081513;28;20024;-75
2022/11/10 04:41:05;;;;;;;14.80;9.93;;;;;;;;;;5077722;28;20038;-74
2022/11/10 04:43:31;;;;;;;14.80;9.80;;;;;;;;;;5076051;28;20119;-74
2022/11/10 04:45:58;;;;;;;17.45;9.88;;;;;;;;;;5084073;28;20036;-74
2022/11/10 04:48:25;;;;;;;16.17;11.20;;;;;;;;;;5072299;28;20150;-74
2022/11/10 04:50:51;;;;;;;14.48;9.80;;;;;;;;;;5076229;28;20108;-74
2022/11/10 04:53:17;;;;;;;16.23;9.55;;;;;;;;;;5073607;28;20040;-74
2022/11/10 04:55:43;;;;;;;14.10;9.02;;;;;;;;;;5079084;28;20028;-74
2022/11/10 04:58:09;;;;;;;11.88;7.85;;;;;;;;;;5084401;28;20036;-75
2022/11/10 05:00:36;;;;;;;18.83;11.10;;;;;;;;;;5080720;28;20035;-75
2022/11/10 05:03:03;;;;;;;14.65;10.40;;;;;;;;;;5082294;28;20133;-74
2022/11/10 05:05:29;;;;;;;13.77;9.57;;;;;;;;;;5080984;28;20040;-74
2022/11/10 05:07:55;;;;;;;15.02;9.50;;;;;;;;;;5076094;28;20048;-74
2022/11/10 05:10:21;;;;;;;14.45;8.82;;;;;;;;;;5075388;28;20032;-74
2022/11/10 05:12:47;;;;;;;18.55;11.52;;;;;;;;;;5081800;28;20667;-75
2022/11/10 05:15:13;;;;;;;15.80;10.07;;;;;;;;;;5079355;28;20040;-75
2022/11/10 05:17:39;;;;;;;18.52;11.82;;;;;;;;;;5084375;28;20067;-74
2022/11/10 05:20:06;;;;;;;23.00;13.80;;;;;;;;;;5078150;28;20029;-75
2022/11/10 05:22:32;;;;;;;18.15;12.23;;;;;;;;;;5079330;28;20033;-75
2022/11/10 05:24:58;;;;;;;17.50;12.10;;;;;;;;;;5084122;28;20096;-74
2022/11/10 05:27:24;;;;;;;19.30;14.02;;;;;;;;;;5066533;28;20484;-75
2022/11/10 05:29:50;;;;;;;15.43;10.55;;;;;;;;;;5083376;28;20104;-74
2022/11/10 05:32:16;;;;;;;19.25;12.43;;;;;;;;;;5070594;28;20032;-75
2022/11/10 05:34:42;;;;;;;14.40;10.80;;;;;;;;;;5076249;28;20032;-74
2022/11/10 05:37:08;;;;;;;18.23;12.02;;;;;;;;;;5080705;28;20152;-75
2022/11/10 05:39:34;;;;;;;19.60;15.05;;;;;;;;;;5077373;28;20578;-74
2022/11/10 05:42:00;;;;;;;17.60;11.98;;;;;;;;;;5078628;28;20032;-74
2022/11/10 05:44:26;;;;;;;16.63;11.13;;;;;;;;;;5079417;28;20473;-74
2022/11/10 05:46:52;;;;;;;19.92;12.27;;;;;;;;;;5086455;28;20036;-74
2022/11/10 05:49:17;;;;;;;20.48;12.88;;;;;;;;;;5080002;28;20040;-74
2022/11/10 05:51:43;;;;;;;22.10;15.02;;;;;;;;;;5081597;28;20032;-74
2022/11/10 05:54:09;;;;;;;22.33;13.60;;;;;;;;;;5084790;28;20142;-74
2022/11/10 05:56:35;;;;;;;17.05;12.27;;;;;;;;;;5088909;28;20051;-75
2022/11/10 05:59:01;;;;;;;21.50;13.48;;;;;;;;;;5094896;28;20365;-75
2022/11/10 06:01:27;;;;;;;12.93;8.52;;;;;;;;;;5089676;28;20043;-74
2022/11/10 06:03:53;;;;;;;14.48;9.05;;;;;;;;;;5081257;28;20429;-74
2022/11/10 06:06:21;;;;;;;18.48;10.25;;;;;;;;;;5089404;28;20067;-75
2022/11/10 06:08:47;;;;;;;12.85;7.85;;;;;;;;;;5075710;28;20032;-75
2022/11/10 06:11:13;;;;;;;14.35;9.60;;;;;;;;;;5086178;28;20408;-74
2022/11/10 06:13:39;;;;;;;11.88;7.55;;;;;;;;;;5090664;28;20035;-74
2022/11/10 06:16:05;;;;;;;9.82;6.63;;;;;;;;;;5088486;28;20036;-75
2022/11/10 06:18:31;;;;;;;10.65;5.95;;;;;;;;;;5082733;28;20028;-75
2022/11/10 06:20:57;;;;;;;12.18;6.38;;;;;;;;;;5083310;28;20032;-75
2022/11/10 06:23:23;;;;;;;13.13;7.78;;;;;;;;;;5085916;28;20028;-74
2022/11/10 06:25:50;;;;;;;8.50;5.78;;;;;;;;;;5083448;28;20039;-74
2022/11/10 06:28:16;;;;;;;7.63;4.72;;;;;;;;;;5087589;28;20064;-74
2022/11/10 06:30:42;;;;;;;10.40;5.13;;;;;;;;;;5089228;28;20035;-73
2022/11/10 06:33:09;;;;;;;14.93;8.65;;;;;;;;;;5086115;28;20374;-71
2022/11/10 06:35:35;;;;;;;11.77;7.20;;;;;;;;;;5080997;28;20119;-74
2022/11/10 06:38:01;;;;;;;12.80;6.97;;;;;;;;;;5091030;28;20127;-74
2022/11/10 06:40:27;;;;;;;13.25;7.45;;;;;;;;;;5088850;28;20039;-75
2022/11/10 06:42:53;;;;;;;18.38;8.77;;;;;;;;;;5087456;28;20064;-74
2022/11/10 06:45:19;;;;;;;14.77;9.30;;;;;;;;;;5083974;28;20807;-74
2022/11/10 06:47:45;;;;;;;22.10;11.32;;;;;;;;;;5090479;28;20080;-74
2022/11/10 06:50:11;;;;;;;16.10;9.73;;;;;;;;;;5085546;28;20125;-74
2022/11/10 06:52:37;;;;;;;21.38;10.63;;;;;;;;;;5084374;28;20829;-75
2022/11/10 06:55:03;;;;;;;18.30;10.05;;;;;;;;;;5082919;28;20032;-74
2022/11/10 06:57:29;;;;;;;16.90;9.00;;;;;;;;;;5077189;28;20043;-74
2022/11/10 06:59:55;;;;;;;16.20;9.48;;;;;;;;;;5090798;28;20028;-74
2022/11/10 07:02:21;;;;;;;18.65;10.57;;;;;;;;;;5088954;28;20407;-74
2022/11/10 07:04:49;;;;;;;16.58;10.07;;;;;;;;;;5085761;28;20028;-74
2022/11/10 07:07:15;;;;;;;13.25;9.07;;;;;;;;;;5081415;28;20040;-74
2022/11/10 07:09:41;;;;;;;21.77;13.93;;;;;;;;;;5084240;28;20433;-74
2022/11/10 07:12:07;;;;;;;16.88;10.18;;;;;;;;;;5081824;28;20075;-74
2022/11/10 07:14:33;;;;;;;25.80;12.40;;;;;;;;;;5086172;28;20111;-74
2022/11/10 07:17:00;;;;;;;21.85;13.30;;;;;;;;;;5082822;28;20062;-74
2022/11/10 07:19:26;;;;;;;24.73;14.02;;;;;;;;;;5085030;28;20465;-74
2022/11/10 07:21:52;;;;;;;21.83;12.13;;;;;;;;;;5084870;28;20042;-74
2022/11/10 07:24:17;;;;;;;21.98;14.07;;;;;;;;;;5087132;28;20024;-74
2022/11/10 07:26:44;;;;;;;18.13;12.38;;;;;;;;;;5087161;28;20104;-74
2022/11/10 07:29:10;;;;;;;19.17;11.65;;;;;;;;;;5080710;28;20036;-74
2022/11/10 07:31:36;;;;;;;19.70;11.52;;;;;;;;;;5077055;28;20065;-74
2022/11/10 07:34:02;;;;;;;23.25;13.25;;;;;;;;;;5084755;28;20058;-74
2022/11/10 07:36:28;;;;;;;19.10;10.23;;;;;;;;;;5078995;28;20072;-75
2022/11/10 07:38:54;;;;;;;28.77;16.27;;;;;;;;;;5076096;28;20024;-74
2022/11/10 07:41:20;;;;;;;16.10;11.18;;;;;;;;;;5089404;28;20595;-74
2022/11/10 07:43:46;;;;;;;16.15;9.77;;;;;;;;;;5085268;28;20615;-74
2022/11/10 07:46:12;;;;;;;15.48;8.43;;;;;;;;;;5082169;28;20043;-74
2022/11/10 07:48:38;;;;;;;18.58;10.82;;;;;;;;;;5077324;28;20060;-74
2022/11/10 07:51:05;;;;;;;19.45;12.93;;;;;;;;;;5074489;28;20045;-75
2022/11/10 07:53:30;;;;;;;21.02;13.70;;;;;;;;;;5090400;28;20035;-74
2022/11/10 07:55:57;;;;;;;22.15;14.23;;;;;;;;;;5085270;28;20538;-74
2022/11/10 07:58:23;;;;;;;23.30;14.77;;;;;;;;;;5083257;28;20489;-74
2022/11/10 08:00:49;;;;;;;20.52;14.32;;;;;;;;;;5080331;28;20138;-74
2022/11/10 08:03:16;;;;;;;23.20;14.93;;;;;;;;;;5081962;28;20034;-74
2022/11/10 08:05:42;;;;;;;23.42;15.35;;;;;;;;;;5088484;28;20469;-74
2022/11/10 08:08:09;;;;;;;17.30;12.25;;;;;;;;;;5090018;28;20028;-74
2022/11/10 08:10:35;;;;;;;32.78;17.55;;;;;;;;;;5074416;28;20050;-74
2022/11/10 08:13:02;;;;;;;26.52;18.20;;;;;;;;;;5082445;28;20478;-75
2022/11/10 08:15:28;;;;;;;22.45;16.10;;;;;;;;;;5086314;28;20035;-74
2022/11/10 08:17:58;;;;;;;25.60;16.25;;;;;;;;;;5082780;28;20632;-75
2022/11/10 08:20:25;;;;;;;19.67;11.90;;;;;;;;;;5082550;28;20029;-74
2022/11/10 08:22:56;;;;;;;24.30;15.60;;;;;;;;;;5085629;28;20539;-74
2022/11/10 08:25:22;;;;;;;28.70;17.42;;;;;;;;;;5079801;28;20120;-74
2022/11/10 08:27:48;;;;;;;36.13;21.83;;;;;;;;;;5088175;28;20111;-74
2022/11/10 08:30:14;;;;;;;26.70;17.65;;;;;;;;;;5083379;28;20040;-74
2022/11/10 08:32:40;;;;;;;30.55;20.50;;;;;;;;;;5083364;28;20043;-74
2022/11/10 08:35:06;;;;;;;29.15;18.25;;;;;;;;;;5077307;28;20036;-74
2022/11/10 08:37:32;;;;;;;24.90;16.25;;;;;;;;;;5087930;28;20035;-74
2022/11/10 08:39:58;;;;;;;20.75;15.00;;;;;;;;;;5085065;28;20473;-74
2022/11/10 08:42:24;;;;;;;18.75;14.38;;;;;;;;;;5080737;28;20036;-75
2022/11/10 08:44:50;;;;;;;20.73;15.25;;;;;;;;;;5085182;28;20039;-74
2022/11/10 08:47:16;;;;;;;25.15;17.65;;;;;;;;;;5081709;28;20024;-74
2022/11/10 08:49:42;;;;;;;23.98;15.70;;;;;;;;;;5082797;28;20028;-74
2022/11/10 08:52:09;;;;;;;19.85;15.25;;;;;;;;;;5086476;28;20035;-74
2022/11/10 08:54:35;;;;;;;20.50;14.80;;;;;;;;;;5086440;28;20052;-74
2022/11/10 08:57:01;;;;;;;18.85;14.88;;;;;;;;;;5085534;28;20067;-74
2022/11/10 08:59:27;;;;;;;14.35;11.70;;;;;;;;;;5078467;28;20028;-75
2022/11/10 09:01:53;;;;;;;18.75;13.55;;;;;;;;;;5084327;28;20032;-74
2022/11/10 09:04:19;;;;;;;16.52;10.68;;;;;;;;;;5074223;28;20120;-74
2022/11/10 09:06:45;;;;;;;17.48;11.60;;;;;;;;;;5081156;28;20409;-74
2022/11/10 09:09:11;;;;;;;15.38;11.32;;;;;;;;;;5084675;28;20036;-74
2022/11/10 09:11:37;;;;;;;13.73;11.02;;;;;;;;;;5081064;28;20024;-74
2022/11/10 09:14:03;;;;;;;19.63;13.15;;;;;;;;;;5088379;28;20028;-74
2022/11/10 09:16:29;;;;;;;15.60;11.77;;;;;;;;;;5073098;28;20032;-74
2022/11/10 09:18:55;;;;;;;15.63;11.30;;;;;;;;;;5086117;28;20114;-74
2022/11/10 09:21:21;;;;;;;15.90;10.73;;;;;;;;;;5082640;28;20039;-74
2022/11/10 09:23:48;;;;;;;13.55;10.30;;;;;;;;;;5080429;28;20141;-74
2022/11/10 09:26:14;;;;;;;16.25;11.98;;;;;;;;;;5076102;28;20036;-74
2022/11/10 09:28:40;;;;;;;14.52;10.55;;;;;;;;;;5084519;28;20082;-74
2022/11/10 09:31:06;;;;;;;15.25;12.05;;;;;;;;;;5087985;28;20073;-74
2022/11/10 09:33:32;;;;;;;18.77;14.43;;;;;;;;;;5085385;28;20040;-75
2022/11/10 09:35:59;;;;;;;20.08;13.60;;;;;;;;;;5087211;28;20046;-74
2022/11/10 09:38:25;;;;;;;28.13;18.10;;;;;;;;;;5080084;28;20020;-74
2022/11/10 09:40:57;;;;;;;20.30;13.77;;;;;;;;;;5090592;28;20024;-74
2022/11/10 09:43:31;;;;;;;19.95;14.68;;;;;;;;;;5084695;28;20082;-74
2022/11/10 09:45:59;;;;;;;22.15;15.95;;;;;;;;;;5073906;28;20082;-74
2022/11/10 09:48:27;;;;;;;26.27;15.95;;;;;;;;;;5082059;28;20032;-74
2022/11/10 09:51:17;;;;;;;18.38;14.93;;;;;;;;;;5081793;28;20043;-74
2022/11/10 09:53:46;;;;;;;26.38;16.92;;;;;;;;;;5084374;28;20059;-74
2022/11/10 09:56:16;;;;;;;24.38;14.82;;;;;;;;;;5091253;28;20048;-74
2022/11/10 09:58:43;;;;;;;15.45;11.30;;;;;;;;;;5090469;28;20028;-74
2022/11/10 10:01:09;;;;;;;17.38;12.43;;;;;;;;;;5079459;28;20075;-74
2022/11/10 10:03:36;;;;;;;20.38;13.40;;;;;;;;;;5083991;28;20702;-73
2022/11/10 10:06:13;;;;;;;17.17;12.25;;;;;;;;;;5084394;28;20154;-74
2022/11/10 10:08:48;;;;;;;18.58;13.43;;;;;;;;;;5088022;28;20036;-75
2022/11/10 10:11:20;;;;;;;18.73;14.43;;;;;;;;;;5070286;28;20483;-74
2022/11/10 10:14:08;;;;;;;18.30;13.85;;;;;;;;;;5081606;28;20082;-74
2022/11/10 10:16:39;;;;;;;12.32;9.80;;;;;;;;;;5081516;28;20117;-75
2022/11/10 10:19:16;;;;;;;15.63;12.05;;;;;;;;;;5090148;28;20476;-74
2022/11/10 10:21:54;;;;;;;15.70;9.43;;;;;;;;;;5092592;28;20016;-74
2022/11/10 10:24:20;;;;;;;13.32;9.93;;;;;;;;;;5090027;28;20518;-74
2022/11/10 10:26:57;;;;;;;12.05;7.80;;;;;;;;;;5084714;28;20040;-74
2022/11/10 10:29:25;;;;;;;11.88;8.90;;;;;;;;;;5086980;28;20385;-74
2022/11/10 10:31:52;;;;;;;9.98;7.22;;;;;;;;;;5085103;28;20115;-74
2022/11/10 10:34:19;;;;;;;10.00;7.15;;;;;;;;;;5082756;28;20447;-74
2022/11/10 10:36:46;;;;;;;11.00;7.22;;;;;;;;;;5090661;28;20143;-75
2022/11/10 10:39:14;;;;;;;13.57;7.45;;;;;;;;;;5089316;28;20032;-74
2022/11/10 10:41:41;;;;;;;13.07;7.97;;;;;;;;;;5086857;28;20058;-74
2022/11/10 10:44:18;;;;;;;12.48;8.63;;;;;;;;;;5084776;28;20046;-74
2022/11/10 10:46:48;;;;;;;11.30;6.05;;;;;;;;;;5087823;28;20043;-75
2022/11/10 10:49:27;;;;;;;15.85;7.80;;;;;;;;;;5084971;28;20039;-74
2022/11/10 10:52:10;;;;;;;18.33;9.07;;;;;;;;;;5079643;28;20039;-74
2022/11/10 10:54:37;;;;;;;13.80;8.07;;;;;;;;;;5076715;28;20035;-74
2022/11/10 10:57:20;;;;;;;12.00;7.57;;;;;;;;;;5079741;28;20481;-74
2022/11/10 10:59:46;;;;;;;11.02;7.28;;;;;;;;;;5085224;28;20806;-74
2022/11/10 11:02:26;;;;;;;13.23;6.28;;;;;;;;;;5089157;28;20033;-74
2022/11/10 11:05:08;;;;;;;11.75;6.40;;;;;;;;;;5078778;28;20111;-74
2022/11/10 11:07:34;;;;;;;;;;;;;;;;;;5087397;28;20038;-74
2022/11/10 11:10:01;;;;;;;11.18;5.60;;;;;;;;;;5084083;28;20006;-74
2022/11/10 11:12:30;;;;;;;7.57;5.43;;;;;;;;;;5078893;28;20073;-74
2022/11/10 11:15:12;;;;;;;14.98;7.13;;;;;;;;;;5083750;28;20055;-75
2022/11/10 11:17:39;;;;;;;14.43;6.78;;;;;;;;;;5080600;28;20032;-75
2022/11/10 11:20:13;;;;;;;12.05;6.45;;;;;;;;;;5087605;28;20130;-75
2022/11/10 11:22:39;;;;;;;9.52;5.15;;;;;;;;;;5081363;28;20065;-75
2022/11/10 11:25:24;;;;;;;11.02;6.43;;;;;;;;;;5083646;28;20028;-74
2022/11/10 11:28:03;;;;;;;12.40;5.60;;;;;;;;;;5088269;28;20071;-74
2022/11/10 11:30:49;;;;;;;9.10;4.47;;;;;;;;;;5086491;28;20031;-74
2022/11/10 11:33:18;;;;;;;7.05;4.22;;;;;;;;;;5085763;28;20052;-75
2022/11/10 11:35:44;;;;;;;11.27;4.72;;;;;;;;;;5084211;28;20028;-75
2022/11/10 11:38:15;;;;;;;5.80;3.58;;;;;;;;;;5084296;28;20023;-74
2022/11/10 11:40:41;;;;;;;7.65;3.85;;;;;;;;;;5084367;28;20073;-75
2022/11/10 11:43:14;;;;;;;7.90;3.00;;;;;;;;;;5086504;28;20035;-74
2022/11/10 11:45:52;;;;;;;5.20;2.70;;;;;;;;;;5077760;28;20078;-75
2022/11/10 11:48:37;;;;;;;7.95;2.90;;;;;;;;;;5082998;28;20432;-74
2022/11/10 11:51:22;;;;;;;7.50;4.22;;;;;;;;;;5085074;28;20102;-75
2022/11/10 11:54:07;;;;;;;10.05;2.80;;;;;;;;;;5084611;28;20036;-74
2022/11/10 11:56:35;;;;;;;8.30;4.05;;;;;;;;;;5084405;28;20587;-75
2022/11/10 11:59:21;;;;;;;10.32;4.75;;;;;;;;;;5083157;28;20036;-74
2022/11/10 12:01:47;;;;;;;9.38;4.93;;;;;;;;;;5043355;28;20455;-74
2022/11/10 12:04:28;;;;;;;7.60;4.60;;;;;;;;;;5084108;28;20108;-74
2022/11/10 12:07:13;;;;;;;8.02;4.43;;;;;;;;;;5079670;28;20093;-74
2022/11/10 12:09:43;;;;;;;10.05;4.03;;;;;;;;;;5085518;28;20131;-74
2022/11/10 12:12:12;;;;;;;5.72;3.20;;;;;;;;;;5083313;28;20032;-74
2022/11/10 12:14:48;;;;;;;7.85;3.33;;;;;;;;;;5079510;28;20035;-74
2022/11/10 12:17:33;;;;;;;6.10;3.10;;;;;;;;;;5083790;28;20044;-74
2022/11/10 12:20:07;;;;;;;7.00;4.22;;;;;;;;;;5086166;28;20440;-75
2022/11/10 12:22:39;;;;;;;6.50;4.43;;;;;;;;;;5081705;28;20028;-74
2022/11/10 12:25:13;;;;;;;6.95;4.20;;;;;;;;;;5081488;28;20037;-74
2022/11/10 12:27:41;;;;;;;7.38;4.00;;;;;;;;;;5086029;28;20035;-74
2022/11/10 12:30:11;;;;;;;9.98;4.65;;;;;;;;;;5083612;28;20035;-74
2022/11/10 12:32:45;;;;;;;8.65;5.32;;;;;;;;;;5081182;28;20110;-74
2022/11/10 12:35:15;;;;;;;11.02;6.40;;;;;;;;;;5079587;28;20450;-75
2022/11/10 12:37:47;;;;;;;8.93;6.03;;;;;;;;;;5080741;28;20063;-74
2022/11/10 12:40:25;;;;;;;9.38;5.45;;;;;;;;;;5087276;28;20457;-75
2022/11/10 12:42:56;;;;;;;8.27;4.78;;;;;;;;;;5076580;28;20108;-74
2022/11/10 12:45:31;;;;;;;6.20;3.87;;;;;;;;;;5082976;28;20487;-75
2022/11/10 12:47:57;;;;;;;7.82;3.67;;;;;;;;;;5076527;28;20036;-74
2022/11/10 12:50:26;;;;;;;6.50;3.40;;;;;;;;;;5082830;28;20031;-74
2022/11/10 12:52:52;;;;;;;6.20;3.15;;;;;;;;;;5079012;28;20044;-74
2022/11/10 12:55:20;;;;;;;6.45;3.40;;;;;;;;;;5086776;28;20035;-74
2022/11/10 12:57:46;;;;;;;11.40;4.05;;;;;;;;;;5084279;28;20042;-74
2022/11/10 13:00:29;;;;;;;5.72;3.70;;;;;;;;;;5080252;28;20474;-74
2022/11/10 13:02:57;;;;;;;6.63;2.90;;;;;;;;;;5078225;28;20497;-74
2022/11/10 13:05:23;;;;;;;6.53;3.20;;;;;;;;;;5079412;28;20047;-74
2022/11/10 13:07:50;;;;;;;5.43;2.35;;;;;;;;;;5075154;28;20036;-74
2022/11/10 13:10:19;;;;;;;4.63;2.20;;;;;;;;;;5073906;28;20041;-74
2022/11/10 13:13:03;;;;;;;4.90;1.92;;;;;;;;;;5077090;28;20036;-74
2022/11/10 13:15:38;;;;;;;3.20;2.03;;;;;;;;;;5086133;28;20745;-74
2022/11/10 13:18:24;;;;;;;4.22;2.00;;;;;;;;;;5076655;28;20044;-74
2022/11/10 13:20:51;;;;;;;4.70;2.40;;;;;;;;;;5046579;28;20127;-74
2022/11/10 13:23:20;;;;;;;5.22;2.42;;;;;;;;;;5085171;28;20534;-74
2022/11/10 13:25:54;;;;;;;6.25;2.50;;;;;;;;;;5083764;28;20119;-74
2022/11/10 13:28:39;;;;;;;4.85;2.30;;;;;;;;;;5083088;28;20036;-74
2022/11/10 13:31:23;;;;;;;7.32;2.35;;;;;;;;;;5081400;28;20043;-74
2022/11/10 13:34:08;;;;;;;4.47;2.00;;;;;;;;;;5079549;28;20291;-74
2022/11/10 13:36:38;;;;;;;6.35;2.97;;;;;;;;;;5083742;28;20028;-74
2022/11/10 13:39:22;;;;;;;8.10;3.13;;;;;;;;;;5077619;28;20078;-74
2022/11/10 13:41:49;;;;;;;4.78;2.40;;;;;;;;;;5074603;28;20083;-74
2022/11/10 13:44:29;;;;;;;7.03;2.53;;;;;;;;;;5080765;28;20035;-74
2022/11/10 13:47:07;;;;;;;7.28;3.08;;;;;;;;;;5080213;28;20041;-74
2022/11/10 13:49:46;;;;;;;7.20;3.10;;;;;;;;;;5081648;28;20453;-74
2022/11/10 13:52:25;;;;;;;6.07;2.53;;;;;;;;;;5083979;28;20053;-74
2022/11/10 13:55:06;;;;;;;7.13;2.72;;;;;;;;;;5078279;28;20032;-74
2022/11/10 13:57:37;;;;;;;5.95;2.53;;;;;;;;;;5081084;28;20115;-74
2022/11/10 14:00:23;;;;;;;8.75;3.40;;;;;;;;;;5073094;28;20119;-74
2022/11/10 14:02:51;;;;;;;7.32;2.90;;;;;;;;;;5076167;28;20028;-74
2022/11/10 14:05:29;;;;;;;10.98;3.08;;;;;;;;;;5082990;28;20044;-74
2022/11/10 14:08:02;;;;;;;8.13;2.10;;;;;;;;;;5080548;28;20056;-74
2022/11/10 14:10:36;;;;;;;5.68;1.88;;;;;;;;;;5078922;28;20727;-74
2022/11/10 14:13:06;;;;;;;5.65;1.98;;;;;;;;;;5080871;28;20127;-74
2022/11/10 14:15:40;;;;;;;3.55;1.80;;;;;;;;;;5086099;28;20071;-73
2022/11/10 14:18:23;;;;;;;4.55;2.10;;;;;;;;;;5082358;28;20028;-74
2022/11/10 14:20:59;;;;;;;4.05;1.73;;;;;;;;;;5083759;28;20028;-74
2022/11/10 14:23:25;;;;;;;4.35;1.73;;;;;;;;;;5082928;28;20405;-74
2022/11/10 14:26:03;;;;;;;3.63;1.35;;;;;;;;;;5093423;28;20028;-74
2022/11/10 14:28:38;;;;;;;4.20;1.80;;;;;;;;;;5084742;28;20063;-74
2022/11/10 14:31:05;;;;;;;4.30;2.03;;;;;;;;;;5087240;28;20036;-74
2022/11/10 14:33:31;;;;;;;4.82;2.00;;;;;;;;;;5085202;28;20038;-74
2022/11/10 14:36:04;;;;;;;7.40;2.05;;;;;;;;;;5087130;28;20024;-74
2022/11/10 14:38:36;;;;;;;6.97;2.00;;;;;;;;;;5080808;28;20036;-73
2022/11/10 14:41:03;;;;;;;4.72;1.45;;;;;;;;;;5086430;28;20381;-74
2022/11/10 14:43:31;;;;;;;4.28;1.80;;;;;;;;;;5078672;28;20031;-74
2022/11/10 14:45:57;;;;;;;4.20;1.52;;;;;;;;;;5082313;28;20495;-74
2022/11/10 14:48:24;;;;;;;5.25;1.95;;;;;;;;;;5081095;28;20031;-74